sensor_id;sensor_type;location;lat;lon;timestamp;temperature;humidity
71837;DHT22;59686;51.716;7.016;2023-03-19T00:00:16;14.40;84.80
71837;DHT22;59686;51.716;7.016;2023-03-19T00:02:42;14.30;84.80
71837;DHT22;59686;51.716;7.016;2023-03-19T00:05:14;14.40;84.90
71837;DHT22;59686;51.716;7.016;2023-03-19T00:07:40;14.30;84.80
71837;DHT22;59686;51.716;7.016;2023-03-19T00:10:06;14.30;84.80
71837;DHT22;59686;51.716;7.016;2023-03-19T00:12:31;14.30;84.80
71837;DHT22;59686;51.716;7.016;2023-03-19T00:14:57;14.30;85.00
71837;DHT22;59686;51.716;7.016;2023-03-19T00:17:23;14.20;84.90
71837;DHT22;59686;51.716;7.016;2023-03-19T00:19:49;14.40;85.00
71837;DHT22;59686;51.716;7.016;2023-03-19T00:22:14;14.20;84.90
71837;DHT22;59686;51.716;7.016;2023-03-19T00:24:42;14.30;85.00
71837;DHT22;59686;51.716;7.016;2023-03-19T00:27:07;14.20;84.90
71837;DHT22;59686;51.716;7.016;2023-03-19T00:29:33;14.20;84.90
71837;DHT22;59686;51.716;7.016;2023-03-19T00:31:59;14.20;85.00
71837;DHT22;59686;51.716;7.016;2023-03-19T00:34:25;14.20;85.00
71837;DHT22;59686;51.716;7.016;2023-03-19T00:36:51;14.10;84.90
71837;DHT22;59686;51.716;7.016;2023-03-19T00:39:17;14.20;85.00
71837;DHT22;59686;51.716;7.016;2023-03-19T00:41:42;14.20;85.00
71837;DHT22;59686;51.716;7.016;2023-03-19T00:44:15;14.30;85.10
71837;DHT22;59686;51.716;7.016;2023-03-19T00:46:43;14.20;85.00
71837;DHT22;59686;51.716;7.016;2023-03-19T00:49:08;14.20;85.00
71837;DHT22;59686;51.716;7.016;2023-03-19T00:51:34;14.10;85.00
71837;DHT22;59686;51.716;7.016;2023-03-19T00:54:05;14.10;85.00
71837;DHT22;59686;51.716;7.016;2023-03-19T00:56:31;14.10;85.10
71837;DHT22;59686;51.716;7.016;2023-03-19T00:58:56;14.10;85.10
71837;DHT22;59686;51.716;7.016;2023-03-19T01:01:22;14.10;85.10
71837;DHT22;59686;51.716;7.016;2023-03-19T01:03:48;14.10;85.10
71837;DHT22;59686;51.716;7.016;2023-03-19T01:06:14;14.10;85.20
71837;DHT22;59686;51.716;7.016;2023-03-19T01:08:40;14.10;85.20
71837;DHT22;59686;51.716;7.016;2023-03-19T01:11:09;14.10;85.20
71837;DHT22;59686;51.716;7.016;2023-03-19T01:13:36;14.20;85.30
71837;DHT22;59686;51.716;7.016;2023-03-19T01:16:02;14.10;85.20
71837;DHT22;59686;51.716;7.016;2023-03-19T01:18:27;14.10;85.20
71837;DHT22;59686;51.716;7.016;2023-03-19T01:20:53;14.00;85.20
71837;DHT22;59686;51.716;7.016;2023-03-19T01:23:22;14.10;85.30
71837;DHT22;59686;51.716;7.016;2023-03-19T01:25:47;14.00;85.20
71837;DHT22;59686;51.716;7.016;2023-03-19T01:28:13;14.00;85.20
71837;DHT22;59686;51.716;7.016;2023-03-19T01:30:39;14.00;85.20
71837;DHT22;59686;51.716;7.016;2023-03-19T01:33:06;14.00;85.20
71837;DHT22;59686;51.716;7.016;2023-03-19T01:35:32;13.90;85.20
71837;DHT22;59686;51.716;7.016;2023-03-19T01:37:57;13.90;85.20
71837;DHT22;59686;51.716;7.016;2023-03-19T01:40:23;14.00;85.20
71837;DHT22;59686;51.716;7.016;2023-03-19T01:43:18;13.90;85.20
71837;DHT22;59686;51.716;7.016;2023-03-19T01:45:44;13.90;85.20
71837;DHT22;59686;51.716;7.016;2023-03-19T01:48:37;14.00;85.30
71837;DHT22;59686;51.716;7.016;2023-03-19T01:51:04;13.90;85.20
71837;DHT22;59686;51.716;7.016;2023-03-19T01:53:33;13.90;85.20
71837;DHT22;59686;51.716;7.016;2023-03-19T01:56:04;13.90;85.20
71837;DHT22;59686;51.716;7.016;2023-03-19T01:58:39;13.90;85.30
71837;DHT22;59686;51.716;7.016;2023-03-19T02:01:06;14.00;85.30
71837;DHT22;59686;51.716;7.016;2023-03-19T02:03:33;13.90;85.30
71837;DHT22;59686;51.716;7.016;2023-03-19T02:05:59;13.90;85.30
71837;DHT22;59686;51.716;7.016;2023-03-19T02:08:27;13.80;85.30
71837;DHT22;59686;51.716;7.016;2023-03-19T02:10:54;13.90;85.30
71837;DHT22;59686;51.716;7.016;2023-03-19T02:13:21;13.80;85.20
71837;DHT22;59686;51.716;7.016;2023-03-19T02:15:48;13.80;85.20
71837;DHT22;59686;51.716;7.016;2023-03-19T02:18:13;13.80;85.30
71837;DHT22;59686;51.716;7.016;2023-03-19T02:20:43;13.90;85.40
71837;DHT22;59686;51.716;7.016;2023-03-19T02:26:06;13.80;85.30
71837;DHT22;59686;51.716;7.016;2023-03-19T02:28:33;13.80;85.30
71837;DHT22;59686;51.716;7.016;2023-03-19T02:31:01;13.70;85.30
71837;DHT22;59686;51.716;7.016;2023-03-19T02:33:27;13.80;85.30
71837;DHT22;59686;51.716;7.016;2023-03-19T02:35:53;13.80;85.40
71837;DHT22;59686;51.716;7.016;2023-03-19T02:38:19;13.70;85.30
71837;DHT22;59686;51.716;7.016;2023-03-19T02:41:00;13.70;85.40
71837;DHT22;59686;51.716;7.016;2023-03-19T02:43:28;13.70;85.30
71837;DHT22;59686;51.716;7.016;2023-03-19T02:45:55;13.70;85.40
71837;DHT22;59686;51.716;7.016;2023-03-19T02:48:21;13.70;85.40
71837;DHT22;59686;51.716;7.016;2023-03-19T02:50:47;13.60;85.30
71837;DHT22;59686;51.716;7.016;2023-03-19T02:53:13;13.70;85.40
71837;DHT22;59686;51.716;7.016;2023-03-19T02:55:38;13.70;85.40
71837;DHT22;59686;51.716;7.016;2023-03-19T02:58:04;13.70;85.40
71837;DHT22;59686;51.716;7.016;2023-03-19T03:00:31;13.60;85.40
71837;DHT22;59686;51.716;7.016;2023-03-19T03:02:58;13.70;85.40
71837;DHT22;59686;51.716;7.016;2023-03-19T03:05:24;13.70;85.40
71837;DHT22;59686;51.716;7.016;2023-03-19T03:07:50;13.70;85.40
71837;DHT22;59686;51.716;7.016;2023-03-19T03:10:18;13.70;85.30
71837;DHT22;59686;51.716;7.016;2023-03-19T03:12:44;13.70;85.40
71837;DHT22;59686;51.716;7.016;2023-03-19T03:15:11;13.60;85.40
71837;DHT22;59686;51.716;7.016;2023-03-19T03:17:43;13.70;85.40
71837;DHT22;59686;51.716;7.016;2023-03-19T03:20:11;13.60;85.40
71837;DHT22;59686;51.716;7.016;2023-03-19T03:22:37;13.70;85.40
71837;DHT22;59686;51.716;7.016;2023-03-19T03:25:06;13.60;85.30
71837;DHT22;59686;51.716;7.016;2023-03-19T03:27:32;13.60;85.40
71837;DHT22;59686;51.716;7.016;2023-03-19T03:29:58;13.70;85.40
71837;DHT22;59686;51.716;7.016;2023-03-19T03:32:24;13.60;85.40
71837;DHT22;59686;51.716;7.016;2023-03-19T03:34:49;13.60;85.40
71837;DHT22;59686;51.716;7.016;2023-03-19T03:37:15;13.60;85.40
71837;DHT22;59686;51.716;7.016;2023-03-19T03:39:42;13.60;85.40
71837;DHT22;59686;51.716;7.016;2023-03-19T03:42:07;13.70;85.50
71837;DHT22;59686;51.716;7.016;2023-03-19T03:44:35;13.60;85.50
71837;DHT22;59686;51.716;7.016;2023-03-19T03:47:01;13.60;85.50
71837;DHT22;59686;51.716;7.016;2023-03-19T03:49:28;13.50;85.40
71837;DHT22;59686;51.716;7.016;2023-03-19T03:51:53;13.60;85.50
71837;DHT22;59686;51.716;7.016;2023-03-19T03:54:19;13.50;85.40
71837;DHT22;59686;51.716;7.016;2023-03-19T03:56:45;13.60;85.50
71837;DHT22;59686;51.716;7.016;2023-03-19T03:59:11;13.70;85.60
71837;DHT22;59686;51.716;7.016;2023-03-19T04:01:37;13.60;85.50
71837;DHT22;59686;51.716;7.016;2023-03-19T04:04:02;13.60;85.50
71837;DHT22;59686;51.716;7.016;2023-03-19T04:06:29;13.60;85.50
71837;DHT22;59686;51.716;7.016;2023-03-19T04:08:54;13.50;85.50
71837;DHT22;59686;51.716;7.016;2023-03-19T04:11:25;13.50;85.50
71837;DHT22;59686;51.716;7.016;2023-03-19T04:13:50;13.50;85.50
71837;DHT22;59686;51.716;7.016;2023-03-19T04:16:18;13.50;85.60
71837;DHT22;59686;51.716;7.016;2023-03-19T04:18:44;13.50;85.60
71837;DHT22;59686;51.716;7.016;2023-03-19T04:21:09;13.60;85.70
71837;DHT22;59686;51.716;7.016;2023-03-19T04:23:35;13.50;85.60
71837;DHT22;59686;51.716;7.016;2023-03-19T04:26:02;13.50;85.60
71837;DHT22;59686;51.716;7.016;2023-03-19T04:28:30;13.50;85.60
71837;DHT22;59686;51.716;7.016;2023-03-19T04:31:03;13.50;85.60
71837;DHT22;59686;51.716;7.016;2023-03-19T04:33:30;13.50;85.60
71837;DHT22;59686;51.716;7.016;2023-03-19T04:35:56;13.50;85.60
71837;DHT22;59686;51.716;7.016;2023-03-19T04:38:23;13.50;85.60
71837;DHT22;59686;51.716;7.016;2023-03-19T04:40:51;13.40;85.60
71837;DHT22;59686;51.716;7.016;2023-03-19T04:43:18;13.50;85.60
71837;DHT22;59686;51.716;7.016;2023-03-19T04:45:44;13.50;85.60
71837;DHT22;59686;51.716;7.016;2023-03-19T04:48:10;13.40;85.60
71837;DHT22;59686;51.716;7.016;2023-03-19T04:50:36;13.50;85.70
71837;DHT22;59686;51.716;7.016;2023-03-19T04:53:01;13.50;85.70
71837;DHT22;59686;51.716;7.016;2023-03-19T04:55:27;13.40;85.70
71837;DHT22;59686;51.716;7.016;2023-03-19T04:57:53;13.40;85.70
71837;DHT22;59686;51.716;7.016;2023-03-19T05:00:19;13.30;85.60
71837;DHT22;59686;51.716;7.016;2023-03-19T05:02:45;13.40;85.70
71837;DHT22;59686;51.716;7.016;2023-03-19T05:05:11;13.40;85.70
71837;DHT22;59686;51.716;7.016;2023-03-19T05:07:39;13.30;85.70
71837;DHT22;59686;51.716;7.016;2023-03-19T05:10:06;13.40;85.80
71837;DHT22;59686;51.716;7.016;2023-03-19T05:12:32;13.40;85.80
71837;DHT22;59686;51.716;7.016;2023-03-19T05:14:58;13.40;85.70
71837;DHT22;59686;51.716;7.016;2023-03-19T05:17:24;13.30;85.80
71837;DHT22;59686;51.716;7.016;2023-03-19T05:19:49;13.40;85.90
71837;DHT22;59686;51.716;7.016;2023-03-19T05:22:17;13.40;85.80
71837;DHT22;59686;51.716;7.016;2023-03-19T05:24:44;13.40;85.80
71837;DHT22;59686;51.716;7.016;2023-03-19T05:27:10;13.40;85.90
71837;DHT22;59686;51.716;7.016;2023-03-19T05:29:36;13.30;85.80
71837;DHT22;59686;51.716;7.016;2023-03-19T05:32:02;13.40;85.80
71837;DHT22;59686;51.716;7.016;2023-03-19T05:34:29;13.30;85.80
71837;DHT22;59686;51.716;7.016;2023-03-19T05:36:55;13.40;85.90
71837;DHT22;59686;51.716;7.016;2023-03-19T05:39:20;13.30;85.90
71837;DHT22;59686;51.716;7.016;2023-03-19T05:41:46;13.30;86.00
71837;DHT22;59686;51.716;7.016;2023-03-19T05:44:12;13.30;86.00
71837;DHT22;59686;51.716;7.016;2023-03-19T05:46:37;13.40;86.10
71837;DHT22;59686;51.716;7.016;2023-03-19T05:49:03;13.30;86.10
71837;DHT22;59686;51.716;7.016;2023-03-19T05:51:35;13.30;86.20
71837;DHT22;59686;51.716;7.016;2023-03-19T05:54:01;13.30;86.10
71837;DHT22;59686;51.716;7.016;2023-03-19T05:56:28;13.30;86.10
71837;DHT22;59686;51.716;7.016;2023-03-19T05:58:54;13.20;86.10
71837;DHT22;59686;51.716;7.016;2023-03-19T06:01:20;13.30;86.20
71837;DHT22;59686;51.716;7.016;2023-03-19T06:03:46;13.30;86.20
71837;DHT22;59686;51.716;7.016;2023-03-19T06:06:12;13.30;86.20
71837;DHT22;59686;51.716;7.016;2023-03-19T06:08:38;13.30;86.10
71837;DHT22;59686;51.716;7.016;2023-03-19T06:11:04;13.30;86.20
71837;DHT22;59686;51.716;7.016;2023-03-19T06:13:30;13.30;86.10
71837;DHT22;59686;51.716;7.016;2023-03-19T06:15:56;13.30;86.10
71837;DHT22;59686;51.716;7.016;2023-03-19T06:18:22;13.40;86.20
71837;DHT22;59686;51.716;7.016;2023-03-19T06:20:48;13.30;86.20
71837;DHT22;59686;51.716;7.016;2023-03-19T06:23:13;13.30;86.30
71837;DHT22;59686;51.716;7.016;2023-03-19T06:25:39;13.20;86.30
71837;DHT22;59686;51.716;7.016;2023-03-19T06:28:06;13.30;86.40
71837;DHT22;59686;51.716;7.016;2023-03-19T06:30:32;13.30;86.40
71837;DHT22;59686;51.716;7.016;2023-03-19T06:32:58;13.30;86.40
71837;DHT22;59686;51.716;7.016;2023-03-19T06:35:24;13.40;86.50
71837;DHT22;59686;51.716;7.016;2023-03-19T06:37:49;13.30;86.50
71837;DHT22;59686;51.716;7.016;2023-03-19T06:40:21;13.20;87.10
71837;DHT22;59686;51.716;7.016;2023-03-19T06:42:48;13.30;86.50
71837;DHT22;59686;51.716;7.016;2023-03-19T06:45:14;13.30;86.50
71837;DHT22;59686;51.716;7.016;2023-03-19T06:47:45;13.30;86.60
71837;DHT22;59686;51.716;7.016;2023-03-19T06:50:13;13.20;86.60
71837;DHT22;59686;51.716;7.016;2023-03-19T06:52:39;13.20;86.60
71837;DHT22;59686;51.716;7.016;2023-03-19T06:55:06;13.30;86.70
71837;DHT22;59686;51.716;7.016;2023-03-19T06:57:36;13.20;86.70
71837;DHT22;59686;51.716;7.016;2023-03-19T07:00:03;13.20;86.70
71837;DHT22;59686;51.716;7.016;2023-03-19T07:02:29;13.20;86.70
71837;DHT22;59686;51.716;7.016;2023-03-19T07:04:57;13.20;86.70
71837;DHT22;59686;51.716;7.016;2023-03-19T07:07:22;13.20;86.90
71837;DHT22;59686;51.716;7.016;2023-03-19T07:09:48;13.10;86.80
71837;DHT22;59686;51.716;7.016;2023-03-19T07:12:14;13.20;86.90
71837;DHT22;59686;51.716;7.016;2023-03-19T07:14:39;13.20;86.90
71837;DHT22;59686;51.716;7.016;2023-03-19T07:17:05;13.20;87.00
71837;DHT22;59686;51.716;7.016;2023-03-19T07:19:31;13.20;87.00
71837;DHT22;59686;51.716;7.016;2023-03-19T07:21:57;13.20;87.00
71837;DHT22;59686;51.716;7.016;2023-03-19T07:24:25;13.10;87.00
71837;DHT22;59686;51.716;7.016;2023-03-19T07:26:51;13.10;87.00
71837;DHT22;59686;51.716;7.016;2023-03-19T07:29:17;13.20;87.00
71837;DHT22;59686;51.716;7.016;2023-03-19T07:31:43;13.20;87.00
71837;DHT22;59686;51.716;7.016;2023-03-19T07:34:10;13.20;87.20
71837;DHT22;59686;51.716;7.016;2023-03-19T07:36:38;13.20;87.10
71837;DHT22;59686;51.716;7.016;2023-03-19T07:39:04;13.20;87.30
71837;DHT22;59686;51.716;7.016;2023-03-19T07:41:34;13.30;87.20
71837;DHT22;59686;51.716;7.016;2023-03-19T07:44:00;13.30;87.30
71837;DHT22;59686;51.716;7.016;2023-03-19T07:46:27;13.20;87.30
71837;DHT22;59686;51.716;7.016;2023-03-19T07:48:53;13.20;87.40
71837;DHT22;59686;51.716;7.016;2023-03-19T07:51:18;13.20;87.30
71837;DHT22;59686;51.716;7.016;2023-03-19T07:53:45;13.30;87.40
71837;DHT22;59686;51.716;7.016;2023-03-19T07:56:12;13.20;87.60
71837;DHT22;59686;51.716;7.016;2023-03-19T07:58:37;13.20;87.50
71837;DHT22;59686;51.716;7.016;2023-03-19T08:01:03;13.20;89.30
71837;DHT22;59686;51.716;7.016;2023-03-19T08:03:29;13.10;90.30
71837;DHT22;59686;51.716;7.016;2023-03-19T08:05:56;13.20;90.70
71837;DHT22;59686;51.716;7.016;2023-03-19T08:08:21;12.90;90.90
71837;DHT22;59686;51.716;7.016;2023-03-19T08:10:47;13.00;91.00
71837;DHT22;59686;51.716;7.016;2023-03-19T08:13:15;13.00;90.60
71837;DHT22;59686;51.716;7.016;2023-03-19T08:15:40;13.10;90.40
71837;DHT22;59686;51.716;7.016;2023-03-19T08:18:06;13.10;90.20
71837;DHT22;59686;51.716;7.016;2023-03-19T08:20:33;13.10;90.10
71837;DHT22;59686;51.716;7.016;2023-03-19T08:22:59;13.20;90.00
71837;DHT22;59686;51.716;7.016;2023-03-19T08:25:25;13.20;89.90
71837;DHT22;59686;51.716;7.016;2023-03-19T08:27:52;13.20;89.70
71837;DHT22;59686;51.716;7.016;2023-03-19T08:30:17;13.10;89.70
71837;DHT22;59686;51.716;7.016;2023-03-19T08:32:43;13.10;89.70
71837;DHT22;59686;51.716;7.016;2023-03-19T08:35:12;13.10;89.40
71837;DHT22;59686;51.716;7.016;2023-03-19T08:37:38;13.10;89.30
71837;DHT22;59686;51.716;7.016;2023-03-19T08:40:04;13.10;89.30
71837;DHT22;59686;51.716;7.016;2023-03-19T08:42:30;13.10;89.20
71837;DHT22;59686;51.716;7.016;2023-03-19T08:44:56;13.10;89.10
71837;DHT22;59686;51.716;7.016;2023-03-19T08:47:21;13.20;89.10
71837;DHT22;59686;51.716;7.016;2023-03-19T08:49:49;13.20;89.00
71837;DHT22;59686;51.716;7.016;2023-03-19T08:52:16;13.10;88.90
71837;DHT22;59686;51.716;7.016;2023-03-19T08:54:45;13.20;89.10
71837;DHT22;59686;51.716;7.016;2023-03-19T08:57:11;13.20;89.00
71837;DHT22;59686;51.716;7.016;2023-03-19T08:59:37;13.10;88.90
71837;DHT22;59686;51.716;7.016;2023-03-19T09:02:03;13.20;89.00
71837;DHT22;59686;51.716;7.016;2023-03-19T09:04:28;13.30;88.90
71837;DHT22;59686;51.716;7.016;2023-03-19T09:06:55;13.30;89.10
71837;DHT22;59686;51.716;7.016;2023-03-19T09:09:23;13.20;89.10
71837;DHT22;59686;51.716;7.016;2023-03-19T09:11:49;13.20;89.10
71837;DHT22;59686;51.716;7.016;2023-03-19T09:14:15;13.20;89.30
71837;DHT22;59686;51.716;7.016;2023-03-19T09:16:44;13.20;89.20
71837;DHT22;59686;51.716;7.016;2023-03-19T09:19:09;13.20;89.30
71837;DHT22;59686;51.716;7.016;2023-03-19T09:21:35;13.30;90.00
71837;DHT22;59686;51.716;7.016;2023-03-19T09:24:02;13.10;89.10
71837;DHT22;59686;51.716;7.016;2023-03-19T09:26:28;13.20;89.30
71837;DHT22;59686;51.716;7.016;2023-03-19T09:28:53;13.20;89.20
71837;DHT22;59686;51.716;7.016;2023-03-19T09:31:19;13.20;89.30
71837;DHT22;59686;51.716;7.016;2023-03-19T09:33:45;13.20;89.20
71837;DHT22;59686;51.716;7.016;2023-03-19T09:36:10;13.20;89.30
71837;DHT22;59686;51.716;7.016;2023-03-19T09:38:36;13.10;89.30
71837;DHT22;59686;51.716;7.016;2023-03-19T09:43:56;13.10;89.30
71837;DHT22;59686;51.716;7.016;2023-03-19T09:49:16;13.20;89.10
71837;DHT22;59686;51.716;7.016;2023-03-19T09:51:57;13.20;89.00
71837;DHT22;59686;51.716;7.016;2023-03-19T09:54:38;13.20;88.90
71837;DHT22;59686;51.716;7.016;2023-03-19T09:57:08;13.30;88.90
71837;DHT22;59686;51.716;7.016;2023-03-19T09:59:34;13.30;88.80
71837;DHT22;59686;51.716;7.016;2023-03-19T10:02:28;13.30;88.80
71837;DHT22;59686;51.716;7.016;2023-03-19T10:05:18;13.40;88.50
71837;DHT22;59686;51.716;7.016;2023-03-19T10:10:31;13.40;88.50
71837;DHT22;59686;51.716;7.016;2023-03-19T10:13:26;13.30;88.50
71837;DHT22;59686;51.716;7.016;2023-03-19T10:15:55;13.40;88.40
71837;DHT22;59686;51.716;7.016;2023-03-19T10:18:27;13.40;88.40
71837;DHT22;59686;51.716;7.016;2023-03-19T10:21:10;13.40;88.50
71837;DHT22;59686;51.716;7.016;2023-03-19T10:23:44;13.50;88.60
71837;DHT22;59686;51.716;7.016;2023-03-19T10:26:18;13.50;88.60
71837;DHT22;59686;51.716;7.016;2023-03-19T10:28:56;13.30;88.50
71837;DHT22;59686;51.716;7.016;2023-03-19T10:31:27;13.40;88.60
71837;DHT22;59686;51.716;7.016;2023-03-19T10:36:32;13.40;88.80
71837;DHT22;59686;51.716;7.016;2023-03-19T10:38:58;13.40;88.90
71837;DHT22;59686;51.716;7.016;2023-03-19T10:44:05;13.30;88.90
71837;DHT22;59686;51.716;7.016;2023-03-19T10:46:41;13.30;89.00
71837;DHT22;59686;51.716;7.016;2023-03-19T10:49:11;13.30;89.30
71837;DHT22;59686;51.716;7.016;2023-03-19T10:51:37;13.30;89.60
71837;DHT22;59686;51.716;7.016;2023-03-19T10:54:22;13.30;89.70
71837;DHT22;59686;51.716;7.016;2023-03-19T10:56:49;13.30;89.70
71837;DHT22;59686;51.716;7.016;2023-03-19T10:59:36;13.40;89.90
71837;DHT22;59686;51.716;7.016;2023-03-19T11:02:23;13.30;89.90
71837;DHT22;59686;51.716;7.016;2023-03-19T11:05:26;13.30;90.00
71837;DHT22;59686;51.716;7.016;2023-03-19T11:08:04;13.20;90.10
71837;DHT22;59686;51.716;7.016;2023-03-19T11:10:32;13.30;90.10
71837;DHT22;59686;51.716;7.016;2023-03-19T11:13:03;13.30;90.10
71837;DHT22;59686;51.716;7.016;2023-03-19T11:15:35;13.20;90.00
71837;DHT22;59686;51.716;7.016;2023-03-19T11:18:15;13.20;89.90
71837;DHT22;59686;51.716;7.016;2023-03-19T11:20:49;13.40;89.80
71837;DHT22;59686;51.716;7.016;2023-03-19T11:23:19;13.40;89.80
71837;DHT22;59686;51.716;7.016;2023-03-19T11:25:50;13.40;89.90
71837;DHT22;59686;51.716;7.016;2023-03-19T11:28:19;13.30;90.10
71837;DHT22;59686;51.716;7.016;2023-03-19T11:33:45;13.40;89.70
71837;DHT22;59686;51.716;7.016;2023-03-19T11:41:48;13.40;89.10
71837;DHT22;59686;51.716;7.016;2023-03-19T11:44:52;13.50;88.90
71837;DHT22;59686;51.716;7.016;2023-03-19T11:54:04;13.50;89.00
71837;DHT22;59686;51.716;7.016;2023-03-19T11:57:03;13.50;89.20
71837;DHT22;59686;51.716;7.016;2023-03-19T12:03:18;13.50;89.60
71837;DHT22;59686;51.716;7.016;2023-03-19T12:15:37;13.60;88.80
71837;DHT22;59686;51.716;7.016;2023-03-19T12:18:38;13.70;89.00
71837;DHT22;59686;51.716;7.016;2023-03-19T12:25:39;13.80;88.20
71837;DHT22;59686;51.716;7.016;2023-03-19T12:31:15;13.90;88.20
71837;DHT22;59686;51.716;7.016;2023-03-19T12:34:18;13.90;88.10
71837;DHT22;59686;51.716;7.016;2023-03-19T12:40:46;13.90;88.00
71837;DHT22;59686;51.716;7.016;2023-03-19T12:43:37;13.90;88.20
71837;DHT22;59686;51.716;7.016;2023-03-19T12:46:41;13.80;88.30
71837;DHT22;59686;51.716;7.016;2023-03-19T12:55:20;13.80;88.60
71837;DHT22;59686;51.716;7.016;2023-03-19T12:58:28;13.70;88.60
71837;DHT22;59686;51.716;7.016;2023-03-19T13:01:30;13.70;88.80
71837;DHT22;59686;51.716;7.016;2023-03-19T13:04:19;13.70;89.00
71837;DHT22;59686;51.716;7.016;2023-03-19T13:07:18;13.70;88.90
71837;DHT22;59686;51.716;7.016;2023-03-19T13:10:10;13.70;88.90
71837;DHT22;59686;51.716;7.016;2023-03-19T13:13:16;13.70;89.70
71837;DHT22;59686;51.716;7.016;2023-03-19T13:22:11;13.80;88.70
71837;DHT22;59686;51.716;7.016;2023-03-19T13:25:00;13.80;88.60
71837;DHT22;59686;51.716;7.016;2023-03-19T13:27:54;13.80;88.60
71837;DHT22;59686;51.716;7.016;2023-03-19T13:31:06;13.80;88.60
71837;DHT22;59686;51.716;7.016;2023-03-19T13:34:03;13.80;88.40
71837;DHT22;59686;51.716;7.016;2023-03-19T13:36:55;13.80;88.40
71837;DHT22;59686;51.716;7.016;2023-03-19T13:39:45;13.80;88.40
71837;DHT22;59686;51.716;7.016;2023-03-19T13:42:38;13.80;88.30
71837;DHT22;59686;51.716;7.016;2023-03-19T13:45:36;13.80;88.20
71837;DHT22;59686;51.716;7.016;2023-03-19T13:59:49;14.00;87.50
71837;DHT22;59686;51.716;7.016;2023-03-19T14:05:24;14.00;87.60
71837;DHT22;59686;51.716;7.016;2023-03-19T14:08:41;14.10;87.50
71837;DHT22;59686;51.716;7.016;2023-03-19T14:11:30;14.10;87.20
71837;DHT22;59686;51.716;7.016;2023-03-19T14:14:18;14.10;86.90
71837;DHT22;59686;51.716;7.016;2023-03-19T14:17:56;14.20;86.70
71837;DHT22;59686;51.716;7.016;2023-03-19T14:20:32;14.20;86.50
71837;DHT22;59686;51.716;7.016;2023-03-19T14:23:25;14.30;86.30
71837;DHT22;59686;51.716;7.016;2023-03-19T14:26:24;14.30;86.30
71837;DHT22;59686;51.716;7.016;2023-03-19T14:29:14;14.30;86.30
71837;DHT22;59686;51.716;7.016;2023-03-19T14:32:05;14.30;86.20
71837;DHT22;59686;51.716;7.016;2023-03-19T14:34:53;14.30;86.10
71837;DHT22;59686;51.716;7.016;2023-03-19T14:37:45;14.40;85.90
71837;DHT22;59686;51.716;7.016;2023-03-19T14:40:44;14.40;85.80
71837;DHT22;59686;51.716;7.016;2023-03-19T14:49:58;14.30;85.80
71837;DHT22;59686;51.716;7.016;2023-03-19T14:53:01;14.30;85.90
71837;DHT22;59686;51.716;7.016;2023-03-19T14:55:51;14.20;85.80
71837;DHT22;59686;51.716;7.016;2023-03-19T14:58:47;14.20;86.00
71837;DHT22;59686;51.716;7.016;2023-03-19T15:01:38;14.20;85.90
71837;DHT22;59686;51.716;7.016;2023-03-19T15:04:27;14.20;86.00
71837;DHT22;59686;51.716;7.016;2023-03-19T15:07:20;14.20;86.00
71837;DHT22;59686;51.716;7.016;2023-03-19T15:10:19;14.20;85.90
71837;DHT22;59686;51.716;7.016;2023-03-19T15:13:24;14.20;85.80
71837;DHT22;59686;51.716;7.016;2023-03-19T15:19:24;14.20;85.60
71837;DHT22;59686;51.716;7.016;2023-03-19T15:22:13;14.20;85.50
71837;DHT22;59686;51.716;7.016;2023-03-19T15:25:10;14.40;85.60
71837;DHT22;59686;51.716;7.016;2023-03-19T15:28:11;14.20;85.50
71837;DHT22;59686;51.716;7.016;2023-03-19T15:33:44;14.30;85.40
71837;DHT22;59686;51.716;7.016;2023-03-19T15:36:32;14.40;85.30
71837;DHT22;59686;51.716;7.016;2023-03-19T15:39:20;14.40;85.10
71837;DHT22;59686;51.716;7.016;2023-03-19T15:42:09;14.50;84.90
71837;DHT22;59686;51.716;7.016;2023-03-19T15:45:20;14.60;84.70
71837;DHT22;59686;51.716;7.016;2023-03-19T15:48:19;14.60;84.60
71837;DHT22;59686;51.716;7.016;2023-03-19T15:51:08;14.60;84.20
71837;DHT22;59686;51.716;7.016;2023-03-19T15:53:55;14.70;83.80
71837;DHT22;59686;51.716;7.016;2023-03-19T15:56:41;14.80;83.70
71837;DHT22;59686;51.716;7.016;2023-03-19T15:59:28;14.80;83.40
71837;DHT22;59686;51.716;7.016;2023-03-19T16:02:45;14.80;83.40
71837;DHT22;59686;51.716;7.016;2023-03-19T16:05:32;14.80;82.70
71837;DHT22;59686;51.716;7.016;2023-03-19T16:08:24;14.80;83.10
71837;DHT22;59686;51.716;7.016;2023-03-19T16:14:09;14.80;83.10
71837;DHT22;59686;51.716;7.016;2023-03-19T16:17:01;14.70;82.90
71837;DHT22;59686;51.716;7.016;2023-03-19T16:19:55;14.70;82.90
71837;DHT22;59686;51.716;7.016;2023-03-19T16:22:53;14.70;82.80
71837;DHT22;59686;51.716;7.016;2023-03-19T16:25:43;14.70;82.80
71837;DHT22;59686;51.716;7.016;2023-03-19T16:28:31;14.80;82.90
71837;DHT22;59686;51.716;7.016;2023-03-19T16:31:23;14.70;82.90
71837;DHT22;59686;51.716;7.016;2023-03-19T16:34:44;14.70;82.80
71837;DHT22;59686;51.716;7.016;2023-03-19T16:37:32;14.70;82.60
71837;DHT22;59686;51.716;7.016;2023-03-19T16:43:07;14.60;82.90
71837;DHT22;59686;51.716;7.016;2023-03-19T16:46:04;14.60;82.90
71837;DHT22;59686;51.716;7.016;2023-03-19T16:48:52;14.60;83.00
71837;DHT22;59686;51.716;7.016;2023-03-19T16:51:39;14.60;83.10
71837;DHT22;59686;51.716;7.016;2023-03-19T16:54:25;14.60;83.20
71837;DHT22;59686;51.716;7.016;2023-03-19T16:57:13;14.60;83.30
71837;DHT22;59686;51.716;7.016;2023-03-19T17:00:00;14.60;83.40
71837;DHT22;59686;51.716;7.016;2023-03-19T17:02:46;14.60;83.40
71837;DHT22;59686;51.716;7.016;2023-03-19T17:05:32;14.60;83.40
71837;DHT22;59686;51.716;7.016;2023-03-19T17:08:18;14.60;83.60
71837;DHT22;59686;51.716;7.016;2023-03-19T17:11:21;14.60;83.60
71837;DHT22;59686;51.716;7.016;2023-03-19T17:14:16;14.60;83.70
71837;DHT22;59686;51.716;7.016;2023-03-19T17:17:09;14.60;83.80
71837;DHT22;59686;51.716;7.016;2023-03-19T17:19:57;14.60;83.90
71837;DHT22;59686;51.716;7.016;2023-03-19T17:22:44;14.60;83.90
71837;DHT22;59686;51.716;7.016;2023-03-19T17:25:30;14.60;83.90
71837;DHT22;59686;51.716;7.016;2023-03-19T17:28:16;14.60;84.10
71837;DHT22;59686;51.716;7.016;2023-03-19T17:31:02;14.70;84.10
71837;DHT22;59686;51.716;7.016;2023-03-19T17:33:48;14.60;84.10
71837;DHT22;59686;51.716;7.016;2023-03-19T17:36:34;14.60;84.20
71837;DHT22;59686;51.716;7.016;2023-03-19T17:39:21;14.60;84.20
71837;DHT22;59686;51.716;7.016;2023-03-19T17:42:20;14.60;84.10
71837;DHT22;59686;51.716;7.016;2023-03-19T17:45:08;14.60;84.20
71837;DHT22;59686;51.716;7.016;2023-03-19T17:47:56;14.60;84.40
71837;DHT22;59686;51.716;7.016;2023-03-19T17:50:43;14.60;84.30
71837;DHT22;59686;51.716;7.016;2023-03-19T17:53:29;14.60;84.40
71837;DHT22;59686;51.716;7.016;2023-03-19T17:56:18;14.60;84.40